Time;durP1;ratioP1;P1;durP2;ratioP2;P2;SDS_P1;SDS_P2;PMS_P1;PMS_P2;Temp;Humidity;BMP_temperature;BMP_pressure;BME280_temperature;BME280_humidity;BME280_pressure;Samples;Min_cycle;Max_cycle;Signal;HPM_P1;HPM_P2
2022/09/12 00:02:26;;;;;;;7.35;6.13;;;15.90;98.40;;;;;;5050080;28;20477;-58
2022/09/12 00:04:52;;;;;;;8.32;6.63;;;15.90;98.40;;;;;;5047324;28;20024;-58
2022/09/12 00:07:17;;;;;;;8.00;7.07;;;15.90;98.50;;;;;;5050541;28;20014;-58
2022/09/12 00:09:43;;;;;;;7.70;6.90;;;15.80;98.50;;;;;;5050820;28;20016;-58
2022/09/12 00:12:08;;;;;;;7.75;6.95;;;15.80;98.50;;;;;;5065444;28;20527;-59
2022/09/12 00:14:34;;;;;;;7.20;6.50;;;15.80;98.60;;;;;;5048506;28;20052;-58
2022/09/12 00:17:00;;;;;;;7.55;6.43;;;15.80;98.70;;;;;;5050030;28;20420;-58
2022/09/12 00:19:26;;;;;;;7.50;6.55;;;15.80;98.70;;;;;;5050742;28;20029;-58
2022/09/12 00:21:52;;;;;;;7.47;6.72;;;15.80;98.70;;;;;;5065038;28;20047;-58
2022/09/12 00:24:18;;;;;;;8.10;7.03;;;15.70;98.70;;;;;;5047709;28;20025;-58
2022/09/12 00:26:43;;;;;;;9.55;8.50;;;15.80;98.80;;;;;;5059080;28;20477;-58
2022/09/12 00:29:17;;;;;;;8.85;7.57;;;15.60;99.00;;;;;;5048688;28;20017;-58
2022/09/12 00:31:43;;;;;;;7.35;5.72;;;15.60;99.50;;;;;;5054419;28;20040;-58
2022/09/12 00:34:09;;;;;;;4.70;4.30;;;15.50;99.30;;;;;;5054430;28;20052;-58
2022/09/12 00:36:35;;;;;;;5.45;3.63;;;15.50;99.40;;;;;;5054585;28;20036;-59
2022/09/12 00:39:02;;;;;;;3.75;3.28;;;15.50;99.40;;;;;;5053872;28;20044;-58
2022/09/12 00:41:33;;;;;;;3.83;3.35;;;15.40;99.40;;;;;;5054234;28;20377;-57
2022/09/12 00:44:23;;;;;;;5.15;4.65;;;15.40;99.40;;;;;;5051297;28;20595;-58
2022/09/12 00:47:00;;;;;;;5.93;5.32;;;15.40;99.50;;;;;;5054112;28;20024;-58
2022/09/12 00:49:35;;;;;;;6.38;5.78;;;15.40;99.50;;;;;;5054366;28;20489;-58
2022/09/12 00:52:04;;;;;;;8.13;6.55;;;15.40;99.50;;;;;;5051252;28;20025;-58
2022/09/12 00:54:37;;;;;;;7.32;6.63;;;15.40;99.50;;;;;;5051322;28;20021;-58
2022/09/12 00:57:15;;;;;;;8.45;7.65;;;15.40;99.50;;;;;;5051699;28;20032;-59
2022/09/12 00:59:47;;;;;;;8.73;7.85;;;15.30;99.50;;;;;;5051142;28;20420;-58
2022/09/12 01:02:14;;;;;;;10.80;9.75;;;15.30;99.60;;;;;;5050838;28;20389;-58
2022/09/12 01:04:40;;;;;;;8.82;7.97;;;15.30;99.70;;;;;;5054030;28;20397;-58
2022/09/12 01:07:07;;;;;;;8.70;7.80;;;15.30;99.70;;;;;;5051389;28;20126;-57
2022/09/12 01:09:35;;;;;;;8.02;7.22;;;15.30;99.70;;;;;;5045559;28;20025;-58
2022/09/12 01:12:01;;;;;;;10.15;8.07;;;15.20;99.70;;;;;;5051967;28;20032;-58
2022/09/12 01:14:34;;;;;;;9.20;8.30;;;15.20;99.80;;;;;;5053792;28;20021;-58
2022/09/12 01:17:07;;;;;;;9.70;8.68;;;15.20;99.70;;;;;;5053458;28;20473;-58
2022/09/12 01:19:56;;;;;;;11.73;9.77;;;15.20;99.80;;;;;;5064608;28;20029;-57
2022/09/12 01:22:35;;;;;;;9.85;8.85;;;15.30;99.70;;;;;;5050687;28;20722;-58
2022/09/12 01:25:28;;;;;;;10.27;9.13;;;15.20;99.80;;;;;;5053659;28;20017;-58
2022/09/12 01:28:12;;;;;;;9.82;8.93;;;15.20;99.70;;;;;;5054231;28;20021;-58
2022/09/12 01:31:05;;;;;;;10.13;9.05;;;15.20;99.70;;;;;;5053153;28;20083;-57
2022/09/12 01:34:09;;;;;;;9.80;8.82;;;15.10;99.80;;;;;;5053361;28;20032;-58
2022/09/12 01:36:59;;;;;;;11.77;9.45;;;15.10;99.80;;;;;;5053796;28;20025;-57
2022/09/12 01:39:42;;;;;;;12.13;9.90;;;15.00;99.80;;;;;;5050654;28;20044;-58
2022/09/12 01:42:29;;;;;;;10.23;9.07;;;15.00;99.90;;;;;;5047405;28;20021;-58
2022/09/12 01:45:22;;;;;;;10.27;9.02;;;14.90;99.90;;;;;;5052026;28;20021;-58
2022/09/12 01:48:03;;;;;;;9.88;8.88;;;14.90;99.90;;;;;;5051068;28;20086;-58
2022/09/12 01:50:34;;;;;;;9.98;8.98;;;14.90;99.90;;;;;;5044439;28;20029;-56
2022/09/12 01:53:14;;;;;;;10.52;9.40;;;14.80;99.90;;;;;;5050669;28;20078;-58
2022/09/12 01:56:00;;;;;;;10.02;8.85;;;14.90;99.90;;;;;;5050085;28;20025;-58
2022/09/12 01:58:33;;;;;;;9.68;8.68;;;14.80;99.90;;;;;;5048281;28;20020;-58
2022/09/12 02:01:23;;;;;;;9.85;8.35;;;14.80;99.90;;;;;;5044950;28;20662;-58
2022/09/12 02:03:57;;;;;;;9.75;8.75;;;14.80;99.90;;;;;;5040621;28;20035;-58
2022/09/12 02:06:34;;;;;;;10.35;8.75;;;14.80;99.90;;;;;;5044056;28;20016;-57
2022/09/12 02:09:07;;;;;;;9.25;8.30;;;14.80;99.90;;;;;;5040417;28;20029;-58
2022/09/12 02:11:37;;;;;;;9.27;8.38;;;14.70;99.90;;;;;;5046842;28;20489;-58
2022/09/12 02:14:08;;;;;;;9.32;7.85;;;14.70;99.90;;;;;;5044690;28;20063;-58
2022/09/12 02:16:40;;;;;;;9.55;8.55;;;14.70;99.90;;;;;;5048122;28;20029;-59
2022/09/12 02:19:14;;;;;;;10.30;9.10;;;14.70;99.90;;;;;;5046554;28;20033;-58
2022/09/12 02:21:47;;;;;;;9.77;8.77;;;14.70;99.90;;;;;;5043880;28;20022;-58
2022/09/12 02:24:14;;;;;;;11.50;8.77;;;14.70;99.90;;;;;;5048747;28;20028;-58
2022/09/12 02:26:48;;;;;;;8.57;7.68;;;14.60;99.90;;;;;;5044675;28;20032;-57
2022/09/12 02:29:21;;;;;;;9.15;8.25;;;14.60;99.90;;;;;;5042530;28;20049;-58
2022/09/12 02:31:53;;;;;;;9.68;8.55;;;14.60;99.90;;;;;;5048025;28;20427;-58
2022/09/12 02:34:33;;;;;;;11.63;9.35;;;14.50;99.90;;;;;;5042835;28;20037;-58
2022/09/12 02:37:15;;;;;;;13.98;10.13;;;14.50;99.90;;;;;;5046203;28;20037;-58
2022/09/12 02:39:41;;;;;;;9.88;8.88;;;14.50;99.90;;;;;;5049496;28;20045;-58
2022/09/12 02:42:07;;;;;;;11.52;10.32;;;14.40;99.90;;;;;;5042870;28;20040;-58
2022/09/12 02:44:34;;;;;;;10.90;9.77;;;14.40;99.90;;;;;;5041154;28;20111;-57
2022/09/12 02:47:08;;;;;;;10.43;9.05;;;14.40;99.90;;;;;;5040764;28;20516;-58
2022/09/12 02:49:34;;;;;;;11.98;10.70;;;14.40;99.90;;;;;;5039883;28;20551;-58
2022/09/12 02:52:00;;;;;;;10.65;9.55;;;14.40;99.90;;;;;;5043391;28;20117;-58
2022/09/12 02:54:28;;;;;;;10.55;9.45;;;14.40;99.90;;;;;;5045465;28;20031;-58
2022/09/12 02:56:53;;;;;;;9.57;8.30;;;14.30;99.90;;;;;;5049812;28;20090;-57
2022/09/12 02:59:21;;;;;;;9.88;8.88;;;14.30;99.90;;;;;;5046557;28;20477;-58
2022/09/12 03:02:09;;;;;;;10.98;8.77;;;14.30;99.90;;;;;;5041149;28;20033;-57
2022/09/12 03:04:52;;;;;;;11.30;9.40;;;14.20;99.90;;;;;;5046569;28;20351;-58
2022/09/12 03:07:59;;;;;;;10.95;9.32;;;14.20;99.90;;;;;;5043079;28;20095;-58
2022/09/12 03:10:59;;;;;;;11.25;8.60;;;14.20;99.90;;;;;;5040569;28;20024;-57
2022/09/12 03:13:49;;;;;;;10.13;8.35;;;14.20;99.90;;;;;;5032448;28;20465;-58
2022/09/12 03:16:42;;;;;;;10.02;8.95;;;14.10;99.90;;;;;;5036758;28;20028;-58
2022/09/12 03:19:37;;;;;;;10.32;8.60;;;14.10;99.90;;;;;;5045890;28;20091;-58
2022/09/12 03:22:21;;;;;;;10.50;9.07;;;14.10;99.90;;;;;;5038231;28;20026;-57
2022/09/12 03:25:03;;;;;;;8.77;7.85;;;14.00;99.90;;;;;;5059230;28;20029;-57
2022/09/12 03:27:35;;;;;;;9.45;8.45;;;14.00;99.90;;;;;;5039073;28;20029;-57
2022/09/12 03:30:02;;;;;;;9.30;7.80;;;14.00;99.90;;;;;;5041449;28;20044;-58
2022/09/12 03:32:43;;;;;;;9.40;8.40;;;14.00;99.90;;;;;;5044299;28;20401;-57
2022/09/12 03:35:10;;;;;;;8.57;7.35;;;14.00;99.90;;;;;;5033839;28;20052;-58
2022/09/12 03:37:35;;;;;;;7.97;7.07;;;14.00;99.90;;;;;;5045291;28;20024;-57
2022/09/12 03:40:03;;;;;;;8.05;7.15;;;14.00;99.90;;;;;;5044106;28;20122;-57
2022/09/12 03:42:28;;;;;;;7.28;6.47;;;14.00;99.90;;;;;;5040557;28;20079;-57
2022/09/12 03:44:56;;;;;;;8.68;7.22;;;13.90;99.90;;;;;;5037770;28;20021;-57
2022/09/12 03:47:22;;;;;;;8.90;7.72;;;14.00;99.90;;;;;;5044886;28;20018;-58
2022/09/12 03:49:48;;;;;;;10.10;8.48;;;14.00;99.90;;;;;;5046118;28;20040;-58
2022/09/12 03:52:14;;;;;;;9.43;8.43;;;14.00;99.90;;;;;;5037030;28;20503;-57
2022/09/12 03:54:39;;;;;;;11.27;8.75;;;13.90;99.90;;;;;;5043130;28;20059;-57
2022/09/12 03:57:05;;;;;;;10.45;9.15;;;13.90;99.90;;;;;;5034724;28;20029;-57
2022/09/12 03:59:31;;;;;;;12.18;9.85;;;13.90;99.90;;;;;;5034533;28;20017;-57
2022/09/12 04:01:56;;;;;;;12.38;9.48;;;13.90;99.90;;;;;;5044395;28;20034;-58
2022/09/12 04:04:22;;;;;;;13.00;9.70;;;13.90;99.90;;;;;;5037026;28;20029;-58
2022/09/12 04:06:48;;;;;;;11.90;9.73;;;13.90;99.90;;;;;;5037554;28;20017;-58
2022/09/12 04:09:13;;;;;;;11.48;9.93;;;13.90;99.90;;;;;;5030550;28;20053;-58
2022/09/12 04:11:39;;;;;;;12.50;10.05;;;13.90;99.90;;;;;;5041303;28;20033;-58
2022/09/12 04:14:04;;;;;;;11.73;9.55;;;13.90;99.90;;;;;;5039581;28;20025;-56
2022/09/12 04:16:31;;;;;;;13.20;10.35;;;13.90;99.90;;;;;;5036595;28;20491;-56
2022/09/12 04:18:56;;;;;;;12.70;10.38;;;13.90;99.90;;;;;;5045574;28;20031;-57
2022/09/12 04:21:23;;;;;;;14.25;11.40;;;13.90;99.90;;;;;;5041777;28;20029;-58
2022/09/12 04:23:49;;;;;;;12.98;10.93;;;13.90;99.90;;;;;;5039962;28;20477;-57
2022/09/12 04:26:16;;;;;;;11.80;9.88;;;13.90;99.90;;;;;;5038197;28;20029;-58
2022/09/12 04:28:43;;;;;;;10.93;9.10;;;13.90;99.90;;;;;;5045251;28;20025;-58
2022/09/12 04:31:14;;;;;;;12.45;8.90;;;13.90;99.90;;;;;;5048172;28;20025;-58
2022/09/12 04:33:40;;;;;;;11.27;9.90;;;13.90;99.90;;;;;;5037127;28;20048;-58
2022/09/12 04:36:09;;;;;;;11.48;9.73;;;13.90;99.90;;;;;;5037266;28;20028;-58
2022/09/12 04:38:35;;;;;;;15.07;11.98;;;13.90;99.90;;;;;;5037650;28;20060;-58
2022/09/12 04:41:12;;;;;;;15.73;12.60;;;13.80;99.90;;;;;;5042063;28;20112;-59
2022/09/12 04:43:38;;;;;;;14.82;11.52;;;13.80;99.90;;;;;;5045391;28;20043;-58
2022/09/12 04:46:08;;;;;;;15.85;12.50;;;13.80;99.90;;;;;;5044890;28;20505;-58
2022/09/12 04:48:42;;;;;;;15.82;11.88;;;13.80;99.90;;;;;;5050050;28;20025;-58
2022/09/12 04:51:13;;;;;;;25.05;16.95;;;13.80;99.90;;;;;;5050013;28;20025;-57
2022/09/12 04:53:40;;;;;;;32.10;23.02;;;13.80;99.90;;;;;;5051533;28;20033;-58
2022/09/12 04:56:10;;;;;;;32.78;23.02;;;13.80;99.90;;;;;;5040527;28;20112;-58
2022/09/12 04:58:56;;;;;;;29.27;20.48;;;13.80;99.90;;;;;;5049719;28;20029;-58
2022/09/12 05:01:22;;;;;;;24.08;18.55;;;13.80;99.90;;;;;;5050651;28;20365;-58
2022/09/12 05:03:49;;;;;;;24.50;16.52;;;13.80;99.90;;;;;;5047818;28;20025;-58
2022/09/12 05:06:18;;;;;;;21.83;16.63;;;13.80;99.90;;;;;;5033089;28;20048;-58
2022/09/12 05:08:44;;;;;;;34.70;23.55;;;13.90;99.90;;;;;;5050395;28;20029;-57
2022/09/12 05:11:31;;;;;;;38.38;24.58;;;13.80;99.90;;;;;;5051721;28;20085;-58
2022/09/12 05:13:58;;;;;;;28.13;20.50;;;13.90;99.90;;;;;;5046572;28;20369;-58
2022/09/12 05:16:25;;;;;;;26.20;18.25;;;13.80;99.90;;;;;;5052977;28;20025;-58
2022/09/12 05:18:51;;;;;;;25.67;17.85;;;13.90;99.90;;;;;;5055039;28;20055;-58
2022/09/12 05:21:20;;;;;;;22.70;16.50;;;13.90;99.90;;;;;;5054323;28;20025;-58
2022/09/12 05:23:49;;;;;;;22.73;16.27;;;14.00;99.90;;;;;;5054189;28;20021;-57
2022/09/12 05:26:23;;;;;;;24.73;16.38;;;14.00;99.90;;;;;;5054088;28;20385;-57
2022/09/12 05:28:50;;;;;;;23.35;15.73;;;14.00;99.90;;;;;;5042120;28;20107;-58
2022/09/12 05:31:18;;;;;;;24.80;16.67;;;14.00;99.90;;;;;;5069267;28;20029;-58
2022/09/12 05:33:45;;;;;;;29.25;20.20;;;14.00;99.90;;;;;;5047292;28;20026;-57
2022/09/12 05:36:13;;;;;;;26.38;18.98;;;14.00;99.90;;;;;;5048389;28;20032;-58
2022/09/12 05:38:39;;;;;;;27.95;18.60;;;14.00;99.90;;;;;;5054589;28;20507;-58
2022/09/12 05:41:20;;;;;;;29.25;20.02;;;14.10;99.90;;;;;;5051081;28;20037;-58
2022/09/12 05:43:57;;;;;;;27.80;18.42;;;14.10;99.90;;;;;;5054957;28;20481;-58
2022/09/12 05:46:27;;;;;;;28.38;18.77;;;14.10;99.90;;;;;;5035884;28;20060;-58
2022/09/12 05:48:56;;;;;;;24.52;18.83;;;14.10;99.90;;;;;;5047917;28;20021;-58
2022/09/12 05:51:27;;;;;;;32.37;20.37;;;14.10;99.90;;;;;;5054305;28;20595;-57
2022/09/12 05:53:58;;;;;;;35.20;22.83;;;14.10;99.90;;;;;;5052459;28;20017;-58
2022/09/12 05:56:32;;;;;;;35.03;24.23;;;14.20;99.90;;;;;;5053417;28;20105;-58
2022/09/12 05:59:00;;;;;;;33.20;22.05;;;14.20;99.90;;;;;;5052765;28;20028;-58
2022/09/12 06:01:28;;;;;;;29.13;19.60;;;14.20;99.90;;;;;;5043091;28;20421;-58
2022/09/12 06:03:55;;;;;;;39.00;25.08;;;14.20;99.90;;;;;;5052344;28;20028;-58
2022/09/12 06:06:23;;;;;;;43.45;29.00;;;14.20;99.90;;;;;;5053370;28;20041;-58
2022/09/12 06:08:51;;;;;;;41.08;26.00;;;14.20;99.90;;;;;;5050052;28;20017;-58
2022/09/12 06:11:21;;;;;;;45.25;29.25;;;14.30;99.90;;;;;;5051225;28;20029;-58
2022/09/12 06:13:48;;;;;;;43.72;28.50;;;14.30;99.90;;;;;;5051891;28;20021;-56
2022/09/12 06:16:14;;;;;;;51.45;31.92;;;14.30;99.90;;;;;;5046156;28;20064;-58
2022/09/12 06:18:41;;;;;;;48.53;32.75;;;14.30;99.90;;;;;;5048393;28;20116;-57
2022/09/12 06:21:09;;;;;;;55.50;34.80;;;14.30;99.90;;;;;;5053914;28;20111;-58
2022/09/12 06:23:35;;;;;;;55.42;35.70;;;14.30;99.90;;;;;;5041696;28;20563;-58
2022/09/12 06:26:03;;;;;;;58.40;36.72;;;14.30;99.90;;;;;;5052691;28;20037;-58
2022/09/12 06:28:29;;;;;;;59.58;36.88;;;14.30;99.90;;;;;;5041186;28;21002;-58
2022/09/12 06:31:04;;;;;;;58.17;37.38;;;14.30;99.90;;;;;;5052995;28;20025;-58
2022/09/12 06:33:32;;;;;;;59.50;38.28;;;14.30;99.90;;;;;;5050033;28;20029;-57
2022/09/12 06:36:06;;;;;;;58.17;38.65;;;14.30;99.90;;;;;;5052066;28;20103;-58
2022/09/12 06:38:31;;;;;;;56.88;36.20;;;14.30;99.90;;;;;;5047572;28;20051;-58
2022/09/12 06:40:59;;;;;;;62.60;38.85;;;14.30;99.90;;;;;;5048966;28;20027;-58
2022/09/12 06:43:25;;;;;;;65.53;41.42;;;14.30;99.90;;;;;;5051751;28;20017;-58
2022/09/12 06:45:50;;;;;;;63.25;39.67;;;14.20;99.90;;;;;;5049579;28;20173;-56
2022/09/12 06:48:22;;;;;;;58.08;39.03;;;14.20;99.90;;;;;;5051832;28;20114;-57
2022/09/12 06:50:58;;;;;;;69.75;41.85;;;14.20;99.90;;;;;;5051591;28;20021;-58
2022/09/12 06:53:26;;;;;;;63.90;40.03;;;14.30;99.90;;;;;;5051582;28;20123;-58
2022/09/12 06:56:18;;;;;;;62.78;39.35;;;14.20;99.90;;;;;;5051835;28;20055;-58
2022/09/12 06:58:45;;;;;;;62.22;38.80;;;14.20;99.90;;;;;;5066794;28;20040;-57
2022/09/12 07:01:42;;;;;;;68.15;41.42;;;14.20;99.90;;;;;;5042481;28;20033;-59
2022/09/12 07:04:10;;;;;;;65.28;42.53;;;14.20;99.90;;;;;;5050818;28;20049;-55
2022/09/12 07:06:47;;;;;;;63.63;39.42;;;14.20;99.90;;;;;;5050697;28;20043;-57
2022/09/12 07:09:19;;;;;;;62.95;42.03;;;14.30;99.90;;;;;;5042275;28;20090;-57
2022/09/12 07:11:47;;;;;;;62.15;42.00;;;14.40;99.90;;;;;;5040967;28;20028;-58
2022/09/12 07:14:14;;;;;;;63.58;40.15;;;14.40;99.90;;;;;;5047400;28;20048;-57
2022/09/12 07:16:40;;;;;;;64.85;41.30;;;14.50;99.90;;;;;;5052538;28;20056;-58
2022/09/12 07:19:06;;;;;;;59.05;40.72;;;14.60;99.90;;;;;;5040031;28;20061;-57
2022/09/12 07:21:35;;;;;;;60.08;40.63;;;14.60;99.90;;;;;;5040838;28;20021;-58
2022/09/12 07:24:11;;;;;;;60.38;41.92;;;14.70;99.90;;;;;;5038973;28;20195;-58
2022/09/12 07:26:38;;;;;;;60.15;42.05;;;14.70;99.90;;;;;;5040120;28;20060;-58
2022/09/12 07:29:04;;;;;;;62.95;41.67;;;14.80;99.90;;;;;;5033741;28;20025;-58
2022/09/12 07:31:30;;;;;;;61.42;39.38;;;14.80;99.90;;;;;;5034849;28;20060;-57
2022/09/12 07:33:55;;;;;;;66.97;42.08;;;14.90;99.90;;;;;;5044980;28;20044;-58
2022/09/12 07:36:24;;;;;;;56.05;36.70;;;15.00;99.90;;;;;;5034402;28;20038;-56
2022/09/12 07:39:24;;;;;;;58.40;40.17;;;15.10;99.90;;;;;;5051532;28;20101;-58
2022/09/12 07:41:50;;;;;;;52.65;37.92;;;15.20;99.90;;;;;;5033072;28;20385;-58
2022/09/12 07:44:16;;;;;;;54.85;40.00;;;15.30;99.90;;;;;;5036797;28;20025;-58
2022/09/12 07:46:41;;;;;;;54.72;38.95;;;15.40;99.90;;;;;;5036502;28;20018;-58
2022/09/12 07:49:21;;;;;;;52.50;37.10;;;15.40;99.90;;;;;;5049351;28;20045;-58
2022/09/12 07:51:56;;;;;;;56.65;37.25;;;15.50;99.90;;;;;;5045298;28;20066;-57
2022/09/12 07:54:26;;;;;;;51.08;35.90;;;15.60;99.90;;;;;;5038884;28;20504;-58
2022/09/12 07:56:52;;;;;;;46.65;36.75;;;15.70;99.90;;;;;;5039885;28;20499;-58
2022/09/12 07:59:20;;;;;;;47.97;35.50;;;15.80;99.90;;;;;;5046559;28;20020;-58
2022/09/12 08:01:46;;;;;;;46.35;33.30;;;15.90;99.90;;;;;;5046829;28;20159;-59
2022/09/12 08:04:11;;;;;;;43.63;34.75;;;16.00;99.90;;;;;;5052087;28;20479;-58
2022/09/12 08:06:37;;;;;;;48.33;33.75;;;16.00;99.90;;;;;;5044605;28;20017;-58
2022/09/12 08:09:03;;;;;;;43.58;33.38;;;16.20;99.90;;;;;;5046295;28;20025;-58
2022/09/12 08:11:29;;;;;;;47.33;35.42;;;16.20;99.90;;;;;;5045509;28;20083;-58
2022/09/12 08:13:56;;;;;;;44.28;32.88;;;16.40;99.90;;;;;;5044358;28;20037;-58
2022/09/12 08:16:30;;;;;;;43.05;33.78;;;16.40;99.90;;;;;;5051678;28;20029;-58
2022/09/12 08:18:56;;;;;;;39.63;32.90;;;16.50;99.90;;;;;;5047369;28;20032;-58
2022/09/12 08:21:26;;;;;;;43.50;33.83;;;16.50;99.90;;;;;;5035341;28;20501;-57
2022/09/12 08:23:54;;;;;;;42.67;33.35;;;16.60;99.90;;;;;;5037636;28;20484;-58
2022/09/12 08:26:20;;;;;;;44.88;32.97;;;16.70;99.90;;;;;;5034298;28;20056;-57
2022/09/12 08:28:46;;;;;;;37.63;30.75;;;16.80;99.90;;;;;;5047662;28;20048;-57
2022/09/12 08:31:15;;;;;;;48.13;34.50;;;16.90;99.90;;;;;;5043962;28;20040;-58
2022/09/12 08:33:43;;;;;;;41.13;32.60;;;17.00;99.90;;;;;;5040157;28;20100;-58
2022/09/12 08:36:09;;;;;;;42.25;32.88;;;17.00;99.90;;;;;;5035866;28;20100;-58
2022/09/12 08:38:46;;;;;;;42.67;33.58;;;17.10;99.90;;;;;;5050652;28;20983;-57
2022/09/12 08:41:17;;;;;;;43.05;34.20;;;17.20;99.90;;;;;;5051367;28;20029;-58
2022/09/12 08:43:58;;;;;;;47.22;35.50;;;17.30;99.90;;;;;;5048206;28;20021;-58
2022/09/12 08:46:42;;;;;;;42.15;33.22;;;17.40;99.90;;;;;;5039991;28;20025;-57
2022/09/12 08:49:15;;;;;;;41.63;34.53;;;17.50;99.90;;;;;;5051403;28;20021;-58
2022/09/12 08:51:41;;;;;;;41.28;33.72;;;17.60;99.90;;;;;;5050863;28;20033;-58
2022/09/12 08:54:33;;;;;;;43.38;34.33;;;17.60;99.90;;;;;;5052763;28;20021;-58
2022/09/12 08:57:02;;;;;;;39.97;34.28;;;17.80;99.90;;;;;;5051213;28;20483;-58
2022/09/12 08:59:38;;;;;;;39.30;30.67;;;17.90;99.90;;;;;;5049141;28;20037;-58
2022/09/12 09:02:20;;;;;;;37.85;31.48;;;18.00;99.90;;;;;;5049223;28;20025;-58
2022/09/12 09:04:57;;;;;;;38.78;33.60;;;18.10;99.90;;;;;;5051332;28;20064;-58
2022/09/12 09:07:44;;;;;;;34.22;30.00;;;18.20;99.90;;;;;;5050860;28;20067;-58
2022/09/12 09:10:33;;;;;;;36.20;31.60;;;18.40;99.90;;;;;;5050629;28;20031;-58
2022/09/12 09:16:29;;;;;;;35.40;31.25;;;18.60;99.90;;;;;;5053685;28;20447;-58
2022/09/12 09:19:03;;;;;;;33.50;29.02;;;18.70;99.90;;;;;;5045162;28;20465;-58
2022/09/12 09:21:39;;;;;;;31.55;27.35;;;18.70;99.90;;;;;;5053258;28;20067;-57
2022/09/12 09:24:10;;;;;;;36.13;28.30;;;18.80;99.90;;;;;;5047291;28;20029;-58
2022/09/12 09:26:41;;;;;;;34.10;28.73;;;19.00;99.90;;;;;;5053091;28;20035;-57
2022/09/12 09:29:18;;;;;;;29.00;25.52;;;19.10;99.90;;;;;;5052951;28;20029;-58
2022/09/12 09:31:48;;;;;;;30.02;26.13;;;19.20;99.80;;;;;;5061174;28;20100;-58
2022/09/12 09:34:27;;;;;;;29.30;25.33;;;19.30;99.40;;;;;;5045213;28;20029;-58
2022/09/12 09:37:04;;;;;;;25.20;21.92;;;19.40;99.20;;;;;;5038779;28;20139;-58
2022/09/12 09:39:47;;;;;;;24.45;21.50;;;19.50;98.90;;;;;;5050261;28;20099;-57
2022/09/12 09:42:34;;;;;;;24.80;22.20;;;19.70;99.00;;;;;;5065339;28;20435;-58
2022/09/12 09:45:03;;;;;;;24.35;21.38;;;19.80;98.20;;;;;;5045765;28;20021;-58
2022/09/12 09:47:28;;;;;;;22.23;19.90;;;19.90;98.20;;;;;;5051776;28;20017;-58
2022/09/12 09:49:54;;;;;;;21.38;19.00;;;20.00;97.50;;;;;;5051806;28;20021;-58
2022/09/12 09:52:27;;;;;;;20.17;17.30;;;20.20;97.30;;;;;;5053249;28;20488;-57
2022/09/12 09:55:00;;;;;;;22.23;18.17;;;20.40;96.70;;;;;;5053560;28;20476;-58
2022/09/12 09:57:46;;;;;;;21.38;18.17;;;20.50;95.40;;;;;;5052533;28;20531;-58
2022/09/12 10:00:35;;;;;;;20.02;17.92;;;20.60;95.30;;;;;;5051398;28;20559;-58
2022/09/12 10:03:06;;;;;;;15.20;13.60;;;20.70;95.10;;;;;;5043790;28;20064;-57
2022/09/12 10:05:44;;;;;;;11.98;10.70;;;20.90;94.70;;;;;;5052238;28;20477;-58
2022/09/12 10:08:20;;;;;;;15.23;13.65;;;21.10;94.50;;;;;;5048806;28;20564;-58
2022/09/12 10:10:57;;;;;;;16.50;14.65;;;21.20;93.70;;;;;;5051202;28;20021;-58
2022/09/12 10:13:31;;;;;;;13.60;12.20;;;21.40;93.00;;;;;;5050947;28;20029;-58
2022/09/12 10:15:59;;;;;;;12.18;10.98;;;21.60;92.90;;;;;;5047982;28;20024;-58
2022/09/12 10:18:52;;;;;;;14.35;12.95;;;21.70;92.30;;;;;;5047535;28;20424;-58
2022/09/12 10:21:30;;;;;;;13.75;12.30;;;21.90;91.80;;;;;;5047901;28;20047;-58
2022/09/12 10:24:19;;;;;;;12.30;11.10;;;22.00;91.00;;;;;;5049573;28;20032;-58
2022/09/12 10:26:48;;;;;;;;;;;22.10;88.70;;;;;;5051970;28;20182;-58
2022/09/12 10:29:26;;;;;;;9.15;6.18;;;22.20;90.00;;;;;;5046794;28;19904;-58
2022/09/12 10:31:58;;;;;;;12.85;11.55;;;22.40;89.50;;;;;;5045774;28;20452;-58
2022/09/12 10:34:36;;;;;;;8.73;7.93;;;22.70;88.10;;;;;;5052434;28;20027;-58
2022/09/12 10:37:39;;;;;;;13.25;11.98;;;23.00;88.10;;;;;;5052386;28;20127;-58
2022/09/12 10:40:19;;;;;;;13.65;12.07;;;23.30;86.10;;;;;;5033445;28;20120;-58
2022/09/12 10:42:54;;;;;;;10.05;9.13;;;23.30;83.80;;;;;;5046093;28;20078;-58
2022/09/12 10:45:36;;;;;;;9.02;8.02;;;23.50;83.30;;;;;;5063321;28;20057;-58
2022/09/12 10:48:21;;;;;;;7.78;7.07;;;23.90;80.00;;;;;;5056683;28;20021;-59
2022/09/12 10:50:47;;;;;;;8.70;6.80;;;24.50;76.70;;;;;;5052627;28;20067;-58
2022/09/12 10:53:20;;;;;;;6.82;6.13;;;25.70;73.00;;;;;;5050973;28;20017;-58
2022/09/12 10:56:08;;;;;;;5.50;4.97;;;25.90;70.00;;;;;;5044678;28;20074;-58
2022/09/12 10:58:50;;;;;;;5.57;4.93;;;26.00;70.20;;;;;;5044875;28;20017;-58
2022/09/12 11:01:33;;;;;;;5.32;4.03;;;26.50;68.00;;;;;;5050341;28;20021;-58
2022/09/12 11:04:29;;;;;;;4.03;3.60;;;27.20;65.40;;;;;;5064199;28;20083;-58
2022/09/12 11:06:58;;;;;;;5.47;4.97;;;28.80;64.20;;;;;;5051256;28;20023;-59
2022/09/12 11:10:03;;;;;;;4.95;4.40;;;30.70;57.50;;;;;;5050701;28;20386;-59
2022/09/12 11:12:31;;;;;;;4.20;3.80;;;31.60;55.30;;;;;;5031931;28;20030;-59
2022/09/12 11:15:27;;;;;;;4.88;4.30;;;33.20;53.20;;;;;;5049425;28;20048;-59
2022/09/12 11:17:57;;;;;;;3.70;3.40;;;33.20;48.30;;;;;;5049396;28;20405;-59
2022/09/12 11:21:17;;;;;;;5.75;3.90;;;32.80;49.30;;;;;;5050355;28;20085;-59
2022/09/12 11:24:06;;;;;;;4.18;3.65;;;32.90;48.70;;;;;;4969460;28;20046;-59
2022/09/12 11:26:50;;;;;;;3.65;3.35;;;33.30;48.70;;;;;;5038765;28;20468;-59
2022/09/12 11:29:37;;;;;;;3.83;2.90;;;33.60;47.00;;;;;;5050465;28;20029;-59
2022/09/12 11:32:34;;;;;;;4.00;3.67;;;34.00;47.20;;;;;;5049307;28;20100;-59
2022/09/12 11:35:21;;;;;;;3.72;2.95;;;34.20;47.20;;;;;;5049294;28;20017;-59
2022/09/12 11:38:20;;;;;;;3.33;3.00;;;34.70;45.00;;;;;;5051024;28;20024;-59
2022/09/12 11:41:14;;;;;;;3.08;2.75;;;34.50;44.00;;;;;;5049006;28;20040;-59
2022/09/12 11:43:45;;;;;;;2.75;2.25;;;34.20;43.70;;;;;;5051087;28;20013;-59
2022/09/12 11:46:18;;;;;;;3.22;2.80;;;34.50;44.40;;;;;;5050497;28;20075;-59
2022/09/12 11:48:56;;;;;;;3.92;3.53;;;35.40;44.00;;;;;;5047186;28;20261;-59
2022/09/12 11:51:32;;;;;;;3.40;2.70;;;35.50;42.90;;;;;;5047604;28;20017;-59
2022/09/12 11:54:19;;;;;;;1.70;1.50;;;35.70;43.00;;;;;;5047209;28;20092;-59
2022/09/12 11:56:48;;;;;;;2.75;2.35;;;37.40;43.20;;;;;;5047002;28;20036;-59
2022/09/12 11:59:49;;;;;;;3.30;2.80;;;38.10;41.00;;;;;;5037680;28;20078;-59
2022/09/12 12:02:26;;;;;;;3.15;2.95;;;38.80;39.50;;;;;;5035357;28;20072;-59
2022/09/12 12:05:19;;;;;;;4.70;4.30;;;37.90;39.30;;;;;;5052183;28;20358;-59
2022/09/12 12:07:58;;;;;;;2.45;2.22;;;37.10;39.40;;;;;;5035391;28;20024;-59
2022/09/12 12:10:39;;;;;;;3.95;3.58;;;36.90;41.00;;;;;;5046218;28;20028;-59
2022/09/12 12:13:31;;;;;;;4.63;3.33;;;36.50;41.20;;;;;;5046758;28;20032;-59
2022/09/12 12:16:27;;;;;;;9.23;4.47;;;36.10;41.10;;;;;;5050545;28;20388;-59
2022/09/12 12:19:04;;;;;;;3.17;2.50;;;36.30;40.80;;;;;;5051857;28;20035;-59
2022/09/12 12:21:47;;;;;;;3.25;2.95;;;35.30;41.00;;;;;;5039573;28;20064;-58
2022/09/12 12:24:25;;;;;;;3.10;2.80;;;34.50;42.00;;;;;;5042281;28;20520;-59
2022/09/12 12:26:57;;;;;;;4.43;3.20;;;33.50;42.90;;;;;;5054240;28;20408;-59
2022/09/12 12:29:42;;;;;;;3.33;3.03;;;32.90;44.30;;;;;;5054786;28;20028;-59
2022/09/12 12:32:07;;;;;;;3.00;2.70;;;32.40;44.90;;;;;;5052914;28;20502;-58
2022/09/12 12:34:41;;;;;;;3.65;3.10;;;32.50;46.30;;;;;;5054640;28;20032;-58
2022/09/12 12:37:21;;;;;;;3.00;2.70;;;32.70;45.70;;;;;;5045088;28;20056;-58
2022/09/12 12:39:46;;;;;;;4.65;4.15;;;32.70;45.60;;;;;;5051494;28;20317;-59
2022/09/12 12:42:36;;;;;;;5.30;4.30;;;32.70;44.60;;;;;;5049510;28;20021;-58
2022/09/12 12:45:30;;;;;;;5.60;5.10;;;32.40;45.80;;;;;;5052351;28;20044;-58
2022/09/12 12:48:00;;;;;;;3.42;3.13;;;32.30;46.00;;;;;;5049572;28;20420;-58
2022/09/12 12:50:28;;;;;;;3.20;2.90;;;32.20;46.10;;;;;;5052584;28;20078;-59
2022/09/12 12:53:15;;;;;;;3.08;2.78;;;32.50;44.80;;;;;;5051924;28;20024;-58
2022/09/12 12:56:07;;;;;;;3.47;3.17;;;32.40;45.20;;;;;;5050148;28;20074;-59
2022/09/12 12:58:39;;;;;;;2.60;2.20;;;31.80;45.60;;;;;;5053248;28;20344;-58
2022/09/12 13:01:21;;;;;;;4.72;3.20;;;31.80;46.00;;;;;;5048110;28;20036;-58
2022/09/12 13:03:54;;;;;;;3.65;2.92;;;31.40;45.80;;;;;;5054225;28;20024;-58
2022/09/12 13:06:33;;;;;;;3.15;2.60;;;30.90;46.50;;;;;;5045550;28;20021;-58
2022/09/12 13:09:19;;;;;;;4.53;4.13;;;30.80;47.40;;;;;;5045419;28;20044;-58
2022/09/12 13:11:45;;;;;;;5.10;3.25;;;30.40;47.30;;;;;;5052880;28;20067;-58
2022/09/12 13:14:33;;;;;;;5.65;3.63;;;30.10;48.10;;;;;;5052408;28;20029;-59
2022/09/12 13:17:03;;;;;;;4.25;3.05;;;29.90;48.10;;;;;;5051431;28;20028;-59